Time;durP1;ratioP1;P1;durP2;ratioP2;P2;SDS_P1;SDS_P2;PMS_P1;PMS_P2;Temp;Humidity;BMP_temperature;BMP_pressure;BME280_temperature;BME280_humidity;BME280_pressure;Samples;Min_cycle;Max_cycle;Signal;HPM_P1;HPM_P2
2022/05/08 00:00:16;;;;;;;19.15;5.55;;;9.50;99.90;;;;;;5123098;28;20040;-62
2022/05/08 00:02:42;;;;;;;19.60;5.90;;;9.50;99.90;;;;;;5121806;28;20085;-62
2022/05/08 00:05:08;;;;;;;23.23;6.45;;;9.40;99.90;;;;;;5122143;28;20035;-62
2022/05/08 00:07:34;;;;;;;19.00;5.05;;;9.40;99.90;;;;;;5126090;28;20048;-61
2022/05/08 00:10:00;;;;;;;19.65;4.90;;;9.30;99.90;;;;;;5120130;28;20044;-62
2022/05/08 00:12:26;;;;;;;18.02;5.45;;;9.30;99.90;;;;;;5126806;28;20083;-62
2022/05/08 00:14:52;;;;;;;16.67;5.70;;;9.20;99.90;;;;;;5126217;28;20048;-61
2022/05/08 00:17:18;;;;;;;16.85;5.20;;;9.10;99.90;;;;;;5124772;28;20069;-62
2022/05/08 00:19:47;;;;;;;25.17;6.50;;;9.10;99.90;;;;;;5124536;28;20074;-62
2022/05/08 00:22:13;;;;;;;17.58;7.07;;;8.90;99.90;;;;;;5125649;28;20088;-61
2022/05/08 00:24:39;;;;;;;19.17;5.95;;;8.80;99.90;;;;;;5136992;27;20036;-62
2022/05/08 00:27:05;;;;;;;18.25;6.07;;;8.80;99.90;;;;;;5142180;27;20403;-62
2022/05/08 00:29:31;;;;;;;21.17;5.97;;;8.60;99.90;;;;;;5126498;28;20039;-62
2022/05/08 00:31:57;;;;;;;21.23;7.03;;;8.60;99.90;;;;;;5122664;28;20134;-62
2022/05/08 00:34:23;;;;;;;15.02;5.28;;;8.60;99.90;;;;;;5118049;28;20043;-62
2022/05/08 00:36:48;;;;;;;15.90;5.88;;;8.70;99.90;;;;;;5117987;28;20035;-61
2022/05/08 00:39:18;;;;;;;18.95;5.97;;;8.60;99.90;;;;;;5123813;28;20071;-62
2022/05/08 00:41:45;;;;;;;26.40;6.53;;;8.60;99.90;;;;;;5121471;28;20134;-62
2022/05/08 00:44:12;;;;;;;16.80;5.43;;;8.70;99.90;;;;;;5124124;28;20510;-61
2022/05/08 00:46:38;;;;;;;22.77;6.10;;;8.50;99.90;;;;;;5123061;28;20047;-61
2022/05/08 00:49:04;;;;;;;23.73;6.38;;;8.50;99.90;;;;;;5123598;28;20035;-62
2022/05/08 00:51:31;;;;;;;24.48;6.65;;;8.50;99.90;;;;;;5125830;28;20043;-61
2022/05/08 00:54:00;;;;;;;17.95;5.53;;;8.50;99.90;;;;;;5121754;28;20100;-61
2022/05/08 00:56:26;;;;;;;21.13;6.95;;;8.50;99.90;;;;;;5119807;28;20063;-62
2022/05/08 00:58:53;;;;;;;19.05;5.88;;;8.50;99.90;;;;;;5120155;28;20360;-62
2022/05/08 01:01:20;;;;;;;21.73;6.47;;;8.60;99.90;;;;;;5126716;28;20039;-61
2022/05/08 01:03:46;;;;;;;15.93;6.38;;;8.60;99.90;;;;;;5123668;28;20050;-62
2022/05/08 01:06:17;;;;;;;22.20;5.97;;;8.50;99.90;;;;;;5119764;28;20042;-61
2022/05/08 01:08:46;;;;;;;20.13;5.32;;;8.50;99.90;;;;;;5118746;28;20463;-62
2022/05/08 01:11:13;;;;;;;21.55;5.50;;;8.50;99.90;;;;;;5124315;28;20051;-61
2022/05/08 01:13:40;;;;;;;21.75;6.03;;;8.40;99.90;;;;;;5122972;28;20055;-61
2022/05/08 01:16:08;;;;;;;19.88;6.72;;;8.50;99.90;;;;;;5123504;28;20499;-61
2022/05/08 01:18:34;;;;;;;22.42;7.40;;;8.40;99.90;;;;;;5138011;27;20051;-61
2022/05/08 01:21:00;;;;;;;16.58;4.95;;;8.40;99.90;;;;;;5120056;28;20044;-62
2022/05/08 01:23:25;;;;;;;20.33;5.60;;;8.40;99.90;;;;;;5121441;28;20047;-61
2022/05/08 01:25:55;;;;;;;22.10;5.78;;;8.40;99.90;;;;;;5121469;28;20039;-61
2022/05/08 01:28:22;;;;;;;;;;;8.50;99.90;;;;;;5121115;28;20121;-62
2022/05/08 01:30:51;;;;;;;18.85;5.45;;;8.50;99.90;;;;;;5124105;28;19920;-61
2022/05/08 01:33:17;;;;;;;17.42;6.28;;;8.50;99.90;;;;;;5115118;28;20693;-62
2022/05/08 01:35:43;;;;;;;20.17;6.28;;;8.50;99.90;;;;;;5121526;28;20086;-62
2022/05/08 01:38:11;;;;;;;21.30;5.35;;;8.50;99.90;;;;;;5121566;28;20067;-61
2022/05/08 01:40:37;;;;;;;19.30;5.55;;;8.60;99.90;;;;;;5116768;28;20089;-61
2022/05/08 01:43:03;;;;;;;25.95;6.88;;;8.50;99.90;;;;;;5122232;28;20045;-61
2022/05/08 01:45:29;;;;;;;19.77;5.97;;;8.70;99.90;;;;;;5140732;27;20035;-62
2022/05/08 01:50:40;;;;;;;21.15;6.20;;;8.50;99.90;;;;;;5124011;28;20103;-61
2022/05/08 01:53:07;;;;;;;19.48;7.45;;;8.40;99.90;;;;;;5124030;28;20099;-61
2022/05/08 01:55:33;;;;;;;20.80;6.28;;;8.40;99.90;;;;;;5121197;28;20044;-61
2022/05/08 01:57:59;;;;;;;15.70;6.10;;;8.20;99.90;;;;;;5119538;28;20127;-62
2022/05/08 02:00:26;;;;;;;16.83;5.75;;;8.10;99.90;;;;;;5125834;28;20045;-61
2022/05/08 02:02:53;;;;;;;14.55;5.72;;;8.00;99.90;;;;;;5117331;28;20044;-61
2022/05/08 02:05:20;;;;;;;18.60;6.28;;;7.60;99.90;;;;;;5117149;28;20044;-61
2022/05/08 02:07:47;;;;;;;19.30;6.35;;;7.50;99.90;;;;;;5122460;28;20043;-61
2022/05/08 02:10:14;;;;;;;16.00;5.78;;;7.40;99.90;;;;;;5106652;28;20038;-61
2022/05/08 02:12:41;;;;;;;22.63;6.68;;;7.30;99.90;;;;;;5121605;28;20050;-61
2022/05/08 02:15:08;;;;;;;19.77;6.35;;;7.30;99.90;;;;;;5124727;28;20048;-61
2022/05/08 02:17:35;;;;;;;20.80;6.10;;;7.30;99.90;;;;;;5119326;28;20036;-61
2022/05/08 02:20:02;;;;;;;24.48;6.22;;;7.30;99.90;;;;;;5137845;28;20136;-61
2022/05/08 02:22:27;;;;;;;18.85;5.78;;;7.30;99.90;;;;;;5119106;28;20054;-61
2022/05/08 02:24:53;;;;;;;18.95;5.38;;;7.20;99.90;;;;;;5120425;28;20048;-61
2022/05/08 02:27:19;;;;;;;15.68;5.28;;;7.10;99.90;;;;;;5118341;28;20051;-61
2022/05/08 02:29:51;;;;;;;16.70;6.88;;;7.00;99.90;;;;;;5127139;28;20051;-61
2022/05/08 02:32:18;;;;;;;14.60;5.30;;;7.00;99.90;;;;;;5119956;28;20530;-61
2022/05/08 02:34:44;;;;;;;27.25;6.93;;;7.00;99.90;;;;;;5124500;28;20043;-61
2022/05/08 02:37:11;;;;;;;18.23;5.85;;;6.90;99.90;;;;;;5125430;28;20035;-61
2022/05/08 02:39:37;;;;;;;20.80;5.70;;;6.80;99.90;;;;;;5127980;28;20043;-62
2022/05/08 02:42:03;;;;;;;18.88;5.22;;;6.70;99.90;;;;;;5127311;28;20091;-61
2022/05/08 02:44:29;;;;;;;18.02;5.65;;;6.70;99.90;;;;;;5126550;28;20052;-61
2022/05/08 02:46:54;;;;;;;18.80;5.63;;;6.60;99.90;;;;;;5126417;28;20040;-61
2022/05/08 02:49:20;;;;;;;23.50;6.05;;;6.60;99.90;;;;;;5125865;28;20051;-61
2022/05/08 02:51:46;;;;;;;23.02;7.47;;;6.50;99.90;;;;;;5124345;28;20081;-61
2022/05/08 02:54:11;;;;;;;19.83;6.20;;;6.50;99.90;;;;;;5121362;28;20036;-62
2022/05/08 02:59:21;;;;;;;19.90;5.72;;;6.40;99.90;;;;;;5127051;28;20530;-61
2022/05/08 03:01:47;;;;;;;19.15;6.07;;;6.40;99.90;;;;;;5127845;28;20044;-61
2022/05/08 03:04:13;;;;;;;17.58;5.40;;;6.50;99.90;;;;;;5129338;28;20040;-61
2022/05/08 03:06:38;;;;;;;18.92;6.18;;;6.50;99.90;;;;;;5121046;28;20108;-61
2022/05/08 03:09:04;;;;;;;13.15;5.38;;;6.30;99.90;;;;;;5123430;28;20070;-61
2022/05/08 03:11:32;;;;;;;19.67;5.32;;;6.30;99.90;;;;;;5121675;28;20036;-62
2022/05/08 03:13:58;;;;;;;21.10;6.90;;;6.20;99.90;;;;;;5128090;28;20064;-61
2022/05/08 03:16:28;;;;;;;16.42;5.95;;;6.20;99.90;;;;;;5125100;28;20062;-61
2022/05/08 03:18:55;;;;;;;22.00;6.53;;;6.10;99.90;;;;;;5126950;28;20160;-61
2022/05/08 03:21:21;;;;;;;20.70;6.00;;;6.20;99.90;;;;;;5125639;28;20043;-61
2022/05/08 03:23:48;;;;;;;16.55;5.82;;;6.30;99.90;;;;;;5123588;28;20043;-61
2022/05/08 03:26:15;;;;;;;23.92;6.55;;;6.20;99.90;;;;;;5128581;28;20040;-61
2022/05/08 03:28:42;;;;;;;18.85;6.53;;;6.20;99.90;;;;;;5122506;28;20052;-61
2022/05/08 03:31:08;;;;;;;10.45;5.20;;;6.20;99.90;;;;;;5125149;28;20044;-61
2022/05/08 03:33:35;;;;;;;13.05;5.20;;;6.20;99.90;;;;;;5126073;28;20044;-61
2022/05/08 03:36:02;;;;;;;15.95;6.20;;;6.10;99.90;;;;;;5123985;28;20529;-61
2022/05/08 03:38:28;;;;;;;18.67;6.05;;;6.10;99.90;;;;;;5122789;28;20040;-61
2022/05/08 03:40:54;;;;;;;19.45;6.90;;;6.00;99.90;;;;;;5123441;28;20104;-61
2022/05/08 03:43:21;;;;;;;15.48;5.50;;;6.10;99.90;;;;;;5122062;28;20054;-61
2022/05/08 03:45:50;;;;;;;14.32;5.93;;;6.00;99.90;;;;;;5121633;28;20048;-61
2022/05/08 03:48:18;;;;;;;12.30;5.43;;;6.10;99.90;;;;;;5125715;28;20039;-61
2022/05/08 03:50:44;;;;;;;12.02;5.03;;;6.00;99.90;;;;;;5123351;28;20043;-61
2022/05/08 03:53:10;;;;;;;12.07;5.20;;;5.80;99.90;;;;;;5122531;28;20047;-61
2022/05/08 03:55:36;;;;;;;12.68;5.07;;;5.70;99.90;;;;;;5121954;28;20051;-61
2022/05/08 03:58:02;;;;;;;17.75;5.32;;;5.80;99.90;;;;;;5121790;28;20035;-61
2022/05/08 04:00:27;;;;;;;16.60;5.70;;;5.90;99.90;;;;;;5123408;28;20039;-61
2022/05/08 04:02:54;;;;;;;20.85;6.88;;;5.90;99.90;;;;;;5123051;28;20056;-61
2022/05/08 04:05:19;;;;;;;17.70;6.00;;;5.80;99.90;;;;;;5120901;28;20036;-61
2022/05/08 04:07:45;;;;;;;17.45;5.63;;;5.70;99.90;;;;;;5118544;28;20127;-61
2022/05/08 04:10:12;;;;;;;16.23;6.10;;;5.70;99.90;;;;;;5126297;28;20036;-61
2022/05/08 04:12:38;;;;;;;18.40;5.78;;;5.70;99.90;;;;;;5117568;28;20051;-61
2022/05/08 04:16:15;;;;;;;21.30;5.68;;;5.90;99.90;;;;;;5125347;28;20063;-61
2022/05/08 04:17:52;;;;;;;18.13;6.32;;;5.90;99.90;;;;;;5127405;28;20048;-61
2022/05/08 04:20:17;;;;;;;15.98;6.35;;;5.90;99.90;;;;;;5121623;28;20052;-61
2022/05/08 04:25:27;;;;;;;16.25;6.68;;;5.90;99.90;;;;;;5125068;28;20046;-61
2022/05/08 04:27:53;;;;;;;18.27;5.97;;;6.00;99.90;;;;;;5125868;28;20051;-61
2022/05/08 04:30:19;;;;;;;19.25;5.80;;;6.10;99.90;;;;;;5120169;28;20122;-61
2022/05/08 04:32:44;;;;;;;17.08;6.78;;;6.00;99.90;;;;;;5124545;28;20043;-61
2022/05/08 04:35:10;;;;;;;15.32;5.32;;;6.00;99.90;;;;;;5117675;28;20036;-61
2022/05/08 04:37:36;;;;;;;17.33;6.70;;;6.00;99.90;;;;;;5142791;27;20082;-61
2022/05/08 04:40:02;;;;;;;15.70;5.35;;;6.10;99.90;;;;;;5125475;28;20036;-61
2022/05/08 04:42:27;;;;;;;13.43;5.18;;;6.10;99.90;;;;;;5108969;28;20055;-61
2022/05/08 04:44:54;;;;;;;17.73;5.90;;;6.20;99.90;;;;;;5121328;28;20044;-61
2022/05/08 04:47:20;;;;;;;15.23;6.15;;;6.20;99.90;;;;;;5125961;28;20051;-61
2022/05/08 04:49:47;;;;;;;16.63;5.35;;;6.40;99.90;;;;;;5122699;28;20126;-61
2022/05/08 04:52:13;;;;;;;14.10;5.22;;;6.40;99.90;;;;;;5124725;28;20059;-61
2022/05/08 04:54:39;;;;;;;21.58;6.72;;;6.40;99.90;;;;;;5120581;28;20064;-61
2022/05/08 04:57:04;;;;;;;13.65;5.97;;;6.40;99.90;;;;;;5120464;28;20097;-61
2022/05/08 04:59:30;;;;;;;16.30;6.07;;;6.60;99.90;;;;;;5117795;28;20048;-61
2022/05/08 05:01:57;;;;;;;16.23;5.38;;;6.60;99.90;;;;;;5117712;28;20048;-61
2022/05/08 05:04:22;;;;;;;19.70;5.45;;;6.70;99.90;;;;;;5121393;28;20402;-61
2022/05/08 05:06:49;;;;;;;17.70;5.95;;;6.60;99.90;;;;;;5120611;28;20044;-61
2022/05/08 05:09:14;;;;;;;17.52;5.68;;;6.70;99.90;;;;;;5124644;28;20058;-61
2022/05/08 05:11:40;;;;;;;14.95;5.72;;;6.90;99.90;;;;;;5141247;27;20040;-62
2022/05/08 05:14:06;;;;;;;15.05;5.32;;;6.90;99.90;;;;;;5121679;28;20347;-61
2022/05/08 05:16:31;;;;;;;14.45;5.75;;;7.10;99.90;;;;;;5121093;28;20047;-61
2022/05/08 05:18:57;;;;;;;15.25;4.85;;;7.20;99.90;;;;;;5123409;28;20114;-61
2022/05/08 05:21:23;;;;;;;16.17;5.10;;;7.20;99.90;;;;;;5111591;28;20538;-61
2022/05/08 05:23:48;;;;;;;14.70;5.00;;;7.30;99.90;;;;;;5118973;28;20128;-61
2022/05/08 05:26:14;;;;;;;13.18;5.03;;;7.50;99.90;;;;;;5119679;28;20028;-61
2022/05/08 05:28:40;;;;;;;11.23;5.15;;;7.60;99.90;;;;;;5115070;28;20044;-61
2022/05/08 05:31:06;;;;;;;18.40;4.90;;;7.70;99.90;;;;;;5117524;28;20462;-61
2022/05/08 05:33:31;;;;;;;13.20;5.57;;;7.80;99.90;;;;;;5124397;28;20055;-62
2022/05/08 05:35:57;;;;;;;15.07;5.15;;;8.00;99.90;;;;;;5120000;28;20044;-61
2022/05/08 05:38:23;;;;;;;12.27;4.80;;;8.10;99.90;;;;;;5125172;28;20046;-61
2022/05/08 05:40:48;;;;;;;17.33;5.30;;;8.30;99.90;;;;;;5120866;28;20039;-61
2022/05/08 05:43:14;;;;;;;17.95;4.88;;;8.30;99.90;;;;;;5124319;28;20076;-61
2022/05/08 05:45:40;;;;;;;12.75;4.72;;;8.50;99.90;;;;;;5117341;28;20107;-62
2022/05/08 05:48:06;;;;;;;14.63;4.50;;;8.60;99.90;;;;;;5122629;28;20035;-62
2022/05/08 05:50:31;;;;;;;16.15;4.60;;;8.60;99.90;;;;;;5123157;28;20407;-62
2022/05/08 05:52:57;;;;;;;12.02;4.40;;;8.60;99.90;;;;;;5124660;28;20087;-62
2022/05/08 05:55:23;;;;;;;11.93;4.30;;;8.80;99.90;;;;;;5122940;28;20073;-62
2022/05/08 05:57:49;;;;;;;15.65;4.60;;;8.90;99.90;;;;;;5107352;28;20053;-62
2022/05/08 06:00:16;;;;;;;11.82;4.30;;;8.90;99.90;;;;;;5123161;28;20108;-61
2022/05/08 06:02:43;;;;;;;12.10;3.95;;;9.00;99.90;;;;;;5116913;28;20052;-61
2022/05/08 06:05:11;;;;;;;10.20;3.28;;;9.20;99.90;;;;;;5120012;28;20105;-61
2022/05/08 06:07:37;;;;;;;14.70;4.13;;;9.30;99.90;;;;;;5123505;28;20141;-61
2022/05/08 06:10:05;;;;;;;11.50;3.67;;;9.30;99.90;;;;;;5123593;28;20040;-61
2022/05/08 06:12:32;;;;;;;10.88;3.47;;;9.40;99.90;;;;;;5120483;28;20048;-62
2022/05/08 06:14:57;;;;;;;9.65;3.45;;;9.50;99.90;;;;;;5120585;28;20051;-61
2022/05/08 06:17:23;;;;;;;9.95;3.78;;;9.60;99.90;;;;;;5121219;28;20040;-62
2022/05/08 06:19:49;;;;;;;8.88;4.25;;;9.80;99.90;;;;;;5120377;28;20069;-62
2022/05/08 06:22:15;;;;;;;11.98;3.33;;;9.70;99.90;;;;;;5121781;28;20047;-65
2022/05/08 06:24:40;;;;;;;8.43;2.90;;;9.80;99.90;;;;;;5116556;28;20055;-64
2022/05/08 06:27:06;;;;;;;13.00;4.13;;;9.90;99.90;;;;;;5116392;28;20088;-66
2022/05/08 06:29:33;;;;;;;12.70;3.45;;;10.00;99.90;;;;;;5132347;28;20047;-64
2022/05/08 06:31:59;;;;;;;10.18;3.20;;;10.20;99.90;;;;;;5101288;28;20031;-64
2022/05/08 06:34:26;;;;;;;7.93;2.70;;;10.30;99.90;;;;;;5121496;28;20061;-64
2022/05/08 06:36:52;;;;;;;11.85;3.20;;;10.40;99.90;;;;;;5108475;28;20051;-64
2022/05/08 06:39:18;;;;;;;10.07;3.28;;;10.50;99.90;;;;;;5118536;28;20043;-64
2022/05/08 06:41:44;;;;;;;14.20;3.65;;;10.50;99.90;;;;;;5123392;28;20098;-63
2022/05/08 06:44:10;;;;;;;11.40;3.30;;;10.60;99.90;;;;;;5112211;28;20047;-64
2022/05/08 06:46:36;;;;;;;10.52;3.40;;;10.60;99.90;;;;;;5123360;28;20031;-64
2022/05/08 06:49:07;;;;;;;11.50;2.92;;;10.70;99.90;;;;;;5116175;28;20048;-64
2022/05/08 06:51:36;;;;;;;10.38;2.70;;;10.80;99.90;;;;;;5118336;28;20044;-64
2022/05/08 06:54:02;;;;;;;10.15;2.42;;;10.70;99.90;;;;;;5112039;28;20036;-65
2022/05/08 06:56:30;;;;;;;8.35;2.67;;;10.80;99.90;;;;;;5116210;28;20126;-66
2022/05/08 07:01:43;;;;;;;25.02;3.90;;;10.90;99.90;;;;;;5122782;28;20059;-61
2022/05/08 07:04:10;;;;;;;11.25;2.55;;;11.10;99.90;;;;;;5123503;28;20044;-61
2022/05/08 07:06:39;;;;;;;10.48;2.83;;;11.10;99.90;;;;;;5122261;28;20086;-61
2022/05/08 07:09:06;;;;;;;10.98;2.47;;;11.20;99.90;;;;;;5123558;28;20055;-61
2022/05/08 07:11:32;;;;;;;15.80;2.83;;;11.10;99.90;;;;;;5139516;27;20081;-61
2022/05/08 07:13:59;;;;;;;10.60;3.13;;;11.30;99.90;;;;;;5126214;28;20051;-61
2022/05/08 07:16:25;;;;;;;7.50;2.42;;;11.30;99.90;;;;;;5123656;28;20039;-61
2022/05/08 07:18:51;;;;;;;8.20;2.80;;;11.40;99.90;;;;;;5125279;28;20035;-61
2022/05/08 07:21:19;;;;;;;5.97;2.20;;;11.40;99.90;;;;;;5121230;28;20048;-61
2022/05/08 07:23:47;;;;;;;10.27;2.95;;;11.50;99.90;;;;;;5123356;28;20111;-61
2022/05/08 07:26:14;;;;;;;10.57;2.58;;;11.50;99.90;;;;;;5138357;27;20484;-61
2022/05/08 07:28:39;;;;;;;10.30;2.88;;;11.50;99.90;;;;;;5123833;28;20385;-61
2022/05/08 07:31:05;;;;;;;10.05;2.75;;;11.60;99.90;;;;;;5127258;28;20081;-65
2022/05/08 07:33:34;;;;;;;8.52;2.25;;;11.70;99.90;;;;;;5125937;28;20054;-66
2022/05/08 07:36:14;;;;;;;8.57;2.75;;;11.80;99.90;;;;;;5143444;27;20088;-64
2022/05/08 07:38:46;;;;;;;8.20;2.28;;;11.80;99.90;;;;;;5125358;28;20067;-63
2022/05/08 07:41:15;;;;;;;7.18;2.70;;;12.00;99.90;;;;;;5123501;28;20047;-64
2022/05/08 07:43:47;;;;;;;10.57;2.50;;;12.10;99.90;;;;;;5120041;28;20072;-63
2022/05/08 07:46:15;;;;;;;7.38;2.42;;;12.10;99.90;;;;;;5125374;28;20096;-68
2022/05/08 07:48:41;;;;;;;14.32;2.92;;;12.10;99.90;;;;;;5121332;28;20372;-66
2022/05/08 07:51:07;;;;;;;11.35;2.63;;;12.10;99.90;;;;;;5125252;28;20065;-66
2022/05/08 07:53:33;;;;;;;11.35;2.95;;;12.00;99.90;;;;;;5124820;28;20053;-66
2022/05/08 07:56:00;;;;;;;10.73;3.50;;;12.20;99.90;;;;;;5126129;28;20157;-66
2022/05/08 07:58:33;;;;;;;9.65;2.53;;;12.10;99.90;;;;;;5124269;28;20051;-66
2022/05/08 08:01:00;;;;;;;11.23;2.75;;;12.10;99.90;;;;;;5107361;28;20040;-65
2022/05/08 08:03:31;;;;;;;9.15;2.97;;;12.00;99.90;;;;;;5117775;28;20051;-66
2022/05/08 08:05:58;;;;;;;11.55;3.10;;;12.10;99.90;;;;;;5119620;28;20554;-66
2022/05/08 08:08:25;;;;;;;9.70;2.95;;;12.10;99.90;;;;;;5120226;28;20055;-66
2022/05/08 08:10:53;;;;;;;7.93;2.63;;;12.20;99.90;;;;;;5124896;28;20099;-66
2022/05/08 08:13:23;;;;;;;6.60;2.55;;;12.10;99.90;;;;;;5123988;28;20051;-66
2022/05/08 08:15:49;;;;;;;11.43;2.45;;;12.00;99.90;;;;;;5119391;28;20063;-66
2022/05/08 08:18:15;;;;;;;12.10;2.78;;;12.00;99.90;;;;;;5125695;28;20070;-66
2022/05/08 08:20:42;;;;;;;9.82;2.90;;;12.20;99.90;;;;;;5120578;28;20036;-66
2022/05/08 08:23:08;;;;;;;12.02;2.90;;;12.20;99.90;;;;;;5123633;28;20048;-66
2022/05/08 08:25:34;;;;;;;13.38;2.78;;;12.20;99.90;;;;;;5124706;28;20480;-66
2022/05/08 08:27:59;;;;;;;8.32;2.20;;;12.40;99.90;;;;;;5120427;28;20039;-66
2022/05/08 08:30:26;;;;;;;8.07;2.55;;;12.20;99.90;;;;;;5124172;28;20099;-66
2022/05/08 08:32:51;;;;;;;9.18;2.83;;;12.30;99.90;;;;;;5124953;28;20050;-66
2022/05/08 08:35:17;;;;;;;7.90;2.70;;;12.30;99.90;;;;;;5123859;28;20047;-66
2022/05/08 08:37:43;;;;;;;9.18;3.10;;;12.30;99.90;;;;;;5125260;28;20480;-65
2022/05/08 08:40:09;;;;;;;10.23;2.45;;;12.40;99.90;;;;;;5122517;28;20062;-66
2022/05/08 08:42:41;;;;;;;12.60;3.42;;;12.40;99.90;;;;;;5121205;28;20040;-66
2022/05/08 08:47:56;;;;;;;11.75;2.75;;;12.40;99.90;;;;;;5124595;28;20616;-66
2022/05/08 08:50:24;;;;;;;11.60;2.60;;;12.60;99.90;;;;;;5122955;28;20407;-66
2022/05/08 08:52:50;;;;;;;8.23;2.60;;;12.50;99.90;;;;;;5124380;28;20044;-66
2022/05/08 08:55:16;;;;;;;11.70;2.80;;;12.60;99.90;;;;;;5120894;28;20040;-66
2022/05/08 08:57:45;;;;;;;7.25;2.40;;;12.60;99.90;;;;;;5119131;28;20097;-66
2022/05/08 09:00:12;;;;;;;9.63;4.00;;;12.60;99.90;;;;;;5124941;28;20028;-65
2022/05/08 09:02:39;;;;;;;11.00;2.47;;;12.70;99.90;;;;;;5120942;28;20080;-66
2022/05/08 09:05:07;;;;;;;6.55;2.40;;;12.80;99.90;;;;;;5124518;28;20093;-66
2022/05/08 09:07:42;;;;;;;11.55;2.35;;;12.80;99.90;;;;;;5123650;28;20053;-66
2022/05/08 09:10:08;;;;;;;7.97;2.55;;;12.80;99.90;;;;;;5118936;28;20051;-66
2022/05/08 09:12:34;;;;;;;10.13;2.75;;;12.80;99.90;;;;;;5123008;28;20538;-65
2022/05/08 09:15:20;;;;;;;7.10;2.30;;;12.80;99.90;;;;;;5115624;28;20040;-66
2022/05/08 09:17:47;;;;;;;11.10;2.90;;;12.90;99.90;;;;;;5119062;28;20387;-65
2022/05/08 09:20:41;;;;;;;8.82;2.40;;;12.90;99.90;;;;;;5126653;28;20050;-66
2022/05/08 09:23:15;;;;;;;8.10;2.50;;;12.90;99.90;;;;;;5121305;28;20573;-66
2022/05/08 09:26:00;;;;;;;9.27;2.30;;;13.10;99.90;;;;;;5123963;28;20039;-66
2022/05/08 09:28:31;;;;;;;6.88;2.28;;;13.10;99.90;;;;;;5118508;28;20048;-66
2022/05/08 09:31:05;;;;;;;9.93;3.00;;;13.20;99.90;;;;;;5122679;28;20248;-65
2022/05/08 09:33:33;;;;;;;9.18;3.50;;;13.20;99.90;;;;;;5141601;27;20122;-66
2022/05/08 09:36:02;;;;;;;7.55;2.67;;;13.20;99.90;;;;;;5121457;28;20048;-66
2022/05/08 09:38:51;;;;;;;10.55;3.38;;;13.40;99.90;;;;;;5122172;28;20039;-65
2022/05/08 09:41:26;;;;;;;11.43;2.75;;;13.30;99.90;;;;;;5122582;28;20357;-66
2022/05/08 09:43:56;;;;;;;11.40;2.80;;;13.50;99.90;;;;;;5116801;28;20043;-66
2022/05/08 09:46:23;;;;;;;11.27;2.80;;;13.40;99.90;;;;;;5122150;28;20081;-66
2022/05/08 09:48:49;;;;;;;8.23;2.80;;;13.60;99.90;;;;;;5116655;28;20099;-66
2022/05/08 09:51:17;;;;;;;7.10;2.90;;;13.50;99.90;;;;;;5118349;28;20040;-66
2022/05/08 09:53:45;;;;;;;8.65;2.85;;;13.50;99.90;;;;;;5116512;28;20107;-66
2022/05/08 09:56:12;;;;;;;11.95;2.72;;;13.60;99.90;;;;;;5123684;28;20040;-66
2022/05/08 09:58:43;;;;;;;7.93;2.47;;;13.70;99.90;;;;;;5121991;28;20120;-66
2022/05/08 10:01:09;;;;;;;12.80;2.83;;;13.80;99.90;;;;;;5123186;28;20071;-66
2022/05/08 10:03:35;;;;;;;11.63;2.95;;;13.80;99.90;;;;;;5119966;28;20047;-66
2022/05/08 10:06:02;;;;;;;8.73;2.45;;;13.90;99.90;;;;;;5120423;28;20047;-66
2022/05/08 10:08:36;;;;;;;10.50;2.65;;;13.90;99.90;;;;;;5118985;28;20054;-66
2022/05/08 10:13:54;;;;;;;7.68;2.58;;;14.10;99.90;;;;;;5114176;28;20851;-66
2022/05/08 10:16:46;;;;;;;10.48;3.25;;;14.10;99.90;;;;;;5120507;28;20067;-66
2022/05/08 10:19:17;;;;;;;15.50;3.03;;;14.20;99.90;;;;;;5116576;28;20043;-66
2022/05/08 10:22:10;;;;;;;12.63;2.90;;;14.30;99.90;;;;;;5118615;28;20044;-66
2022/05/08 10:24:54;;;;;;;16.05;2.60;;;14.30;99.90;;;;;;5096545;28;20054;-66
2022/05/08 10:27:33;;;;;;;8.93;2.40;;;14.20;99.90;;;;;;5121162;28;20411;-66
2022/05/08 10:29:58;;;;;;;8.23;2.33;;;14.30;99.90;;;;;;5120276;28;20055;-66
2022/05/08 10:32:33;;;;;;;12.10;3.08;;;14.30;99.90;;;;;;5122470;28;20051;-66
2022/05/08 10:35:13;;;;;;;10.02;3.08;;;14.30;99.90;;;;;;5120952;28;20047;-66
2022/05/08 10:37:40;;;;;;;7.78;2.75;;;14.30;99.90;;;;;;5121600;28;20502;-66
2022/05/08 10:40:36;;;;;;;10.80;2.30;;;14.50;99.90;;;;;;5122636;28;20039;-66
2022/05/08 10:43:14;;;;;;;8.82;2.58;;;14.50;99.90;;;;;;5085483;28;20052;-66
2022/05/08 10:45:43;;;;;;;10.95;2.60;;;14.60;99.90;;;;;;5084396;28;20077;-66
2022/05/08 10:48:09;;;;;;;7.43;2.60;;;14.70;99.90;;;;;;5071072;28;20074;-66
2022/05/08 10:50:36;;;;;;;7.07;2.55;;;14.60;99.90;;;;;;5087933;28;20044;-66
2022/05/08 10:53:03;;;;;;;10.77;2.90;;;14.70;99.90;;;;;;5070631;28;20135;-66
2022/05/08 10:55:29;;;;;;;10.48;2.42;;;15.00;99.90;;;;;;5088131;28;20112;-66
2022/05/08 10:57:55;;;;;;;9.77;2.63;;;14.80;99.90;;;;;;5088139;28;20036;-66
2022/05/08 11:00:29;;;;;;;9.70;2.92;;;14.90;99.90;;;;;;5088573;28;20481;-66
2022/05/08 11:02:56;;;;;;;6.28;3.30;;;14.90;99.90;;;;;;5088547;28;20044;-66
2022/05/08 11:05:31;;;;;;;7.95;2.70;;;15.00;99.90;;;;;;5087500;28;20076;-66
2022/05/08 11:08:00;;;;;;;11.50;3.10;;;14.90;99.90;;;;;;5105935;28;20100;-66
2022/05/08 11:10:37;;;;;;;8.55;3.10;;;15.00;99.90;;;;;;5088054;28;20074;-66
2022/05/08 11:13:11;;;;;;;9.18;2.85;;;15.10;99.90;;;;;;5098337;28;20500;-66
2022/05/08 11:15:39;;;;;;;14.35;3.13;;;15.10;99.90;;;;;;5087373;28;20423;-66
2022/05/08 11:18:17;;;;;;;11.80;2.85;;;15.40;99.90;;;;;;5088373;28;20051;-66
2022/05/08 11:21:09;;;;;;;11.88;2.75;;;15.40;99.90;;;;;;5116711;28;20079;-66
2022/05/08 11:23:44;;;;;;;13.35;3.13;;;15.50;99.80;;;;;;5120431;28;20063;-66
2022/05/08 11:26:12;;;;;;;7.85;2.40;;;15.50;99.50;;;;;;5116727;28;20035;-66
2022/05/08 11:28:55;;;;;;;6.38;2.33;;;15.50;99.90;;;;;;5120587;28;20051;-66
2022/05/08 11:31:23;;;;;;;10.18;2.50;;;15.50;99.90;;;;;;5124705;28;20067;-66
2022/05/08 11:36:36;;;;;;;8.82;2.60;;;15.70;99.90;;;;;;5124233;28;20107;-66
2022/05/08 11:39:04;;;;;;;10.68;3.28;;;15.80;99.90;;;;;;5121953;28;20079;-66
2022/05/08 11:41:37;;;;;;;9.55;2.65;;;15.70;99.90;;;;;;5118619;28;20514;-66
2022/05/08 11:44:15;;;;;;;10.38;3.30;;;15.80;99.90;;;;;;5125618;28;20040;-66
2022/05/08 11:46:46;;;;;;;9.73;2.70;;;15.80;99.90;;;;;;5121291;28;20110;-66
2022/05/08 11:49:16;;;;;;;8.05;2.90;;;15.80;99.90;;;;;;5124918;28;20050;-66
2022/05/08 11:51:44;;;;;;;9.27;3.00;;;15.70;99.90;;;;;;5125443;28;20028;-66
2022/05/08 11:54:36;;;;;;;6.75;2.85;;;15.80;99.90;;;;;;5125683;28;20044;-66
2022/05/08 11:57:18;;;;;;;10.50;3.00;;;15.80;99.90;;;;;;5121185;28;20043;-66
2022/05/08 11:59:52;;;;;;;9.43;2.67;;;15.90;99.90;;;;;;5126006;28;20054;-66
2022/05/08 12:02:36;;;;;;;8.85;2.72;;;16.00;99.90;;;;;;5123827;28;20047;-66
2022/05/08 12:05:01;;;;;;;11.10;3.28;;;16.00;99.90;;;;;;5120866;28;20044;-66
2022/05/08 12:07:38;;;;;;;9.95;2.55;;;16.20;99.50;;;;;;5124688;28;20054;-66
2022/05/08 12:10:05;;;;;;;9.70;3.42;;;16.10;99.90;;;;;;5124432;28;20052;-66
2022/05/08 12:12:35;;;;;;;10.65;2.70;;;16.10;99.90;;;;;;5118654;28;20082;-67
2022/05/08 12:15:17;;;;;;;8.15;2.97;;;16.40;99.90;;;;;;5125783;28;20377;-66
2022/05/08 12:17:43;;;;;;;12.25;2.83;;;16.40;99.90;;;;;;5126804;28;20054;-66
2022/05/08 12:20:14;;;;;;;10.05;2.75;;;16.40;99.90;;;;;;5122666;28;20126;-66
2022/05/08 12:22:41;;;;;;;7.10;2.28;;;16.50;99.20;;;;;;5118159;28;20103;-66
2022/05/08 12:25:08;;;;;;;11.32;3.17;;;16.40;99.90;;;;;;5118760;28;20047;-66
2022/05/08 12:27:34;;;;;;;7.82;2.78;;;16.40;99.90;;;;;;5123904;28;20047;-66
2022/05/08 12:30:01;;;;;;;9.73;2.70;;;16.60;99.90;;;;;;5122223;28;20079;-66
2022/05/08 12:32:27;;;;;;;7.65;2.85;;;16.50;99.90;;;;;;5120228;28;20047;-66
2022/05/08 12:34:54;;;;;;;6.55;2.53;;;16.60;99.90;;;;;;5120415;28;20040;-66
2022/05/08 12:37:21;;;;;;;9.10;2.70;;;16.70;99.90;;;;;;5124390;28;20039;-66
2022/05/08 12:39:47;;;;;;;6.90;2.63;;;16.90;99.50;;;;;;5123270;28;20043;-66
2022/05/08 12:42:13;;;;;;;5.70;2.00;;;17.00;96.60;;;;;;5122056;28;20127;-66
2022/05/08 12:44:39;;;;;;;7.22;2.33;;;17.20;86.80;;;;;;5122231;28;20044;-66
2022/05/08 12:47:06;;;;;;;7.38;2.85;;;17.20;75.80;;;;;;5125418;28;20039;-66
2022/05/08 12:49:33;;;;;;;10.52;2.60;;;17.10;81.00;;;;;;5122073;28;20048;-66
2022/05/08 12:52:00;;;;;;;8.30;2.65;;;17.10;92.80;;;;;;5124796;28;20070;-66
2022/05/08 12:54:26;;;;;;;6.72;2.85;;;17.20;92.80;;;;;;5120534;28;20397;-66
2022/05/08 12:56:52;;;;;;;7.70;2.40;;;17.30;88.80;;;;;;5123079;28;20047;-66
2022/05/08 13:02:02;;;;;;;4.97;1.92;;;17.40;93.10;;;;;;5122506;28;20414;-66
2022/05/08 13:04:28;;;;;;;9.35;2.63;;;17.50;91.90;;;;;;5124004;28;20334;-66
2022/05/08 13:06:54;;;;;;;8.93;3.00;;;17.60;95.00;;;;;;5122272;28;20052;-66
2022/05/08 13:09:20;;;;;;;9.85;3.15;;;17.80;93.50;;;;;;5123693;28;20054;-66
2022/05/08 13:11:46;;;;;;;6.47;2.50;;;17.90;90.10;;;;;;5123919;28;20103;-66